YLAM weather

Lambina Airport
South Australia, Australia

Public forecast

Using degrees Celsius for public forecast. Weather courtesy of forecast.io.

METAR (pilot weather report)

Closest report is Ayers Rock Connellan Airport, 195.9 nm (362.9 km) WNW. Retrieved 2019/03/22 14:00 UTC (27 minutes ago):

YAYE 221400Z AUTO 07008KT 9999 // NCD 31/03 Q1009

TAF (pilot weather forecast)

Closest forecast is Alice Springs Airport, 186.7 nm (345.8 km) N. Retrieved 2019/03/22 12:00 UTC (2 hours ago):

TAF YBAS 221106Z 2212/2312 10006KT CAVOK FM221600 30005KT CAVOK FM222300 07012KT CAVOK